KLNC

Lancaster Regional Airport

Lancaster, Texas, USA
METAR KLNC 212315Z AUTO 07006KT 10SM CLR 32/18 A3007 RMK AO2 T03200177
Observed Flight Rules
Aug-21 @ 23:15 UTC (32 minutes ago) Visual Flight Rules
Wind Visibility Clouds
70° at 6 knots 10 miles
  • Clear skies
Temperatures Readings
Current 32°C / 90°F
Dewpoint 18°C / 64°F
Humidity 43%
Altimeter 30.07" Hg
Pressure 1018 hPa
Elevation 153
METAR KLNC 212315Z AUTO 07006KT 10SM CLR 32/18 A3007 RMK AO2 T03200177
Observed Flight Rules
Aug-21 @ 23:15 UTC
(32 minutes ago)
VFR
Wind Visibility
70° at 6 knots 10 miles
Clouds
  • Clear skies
Temperature Dewpoint
32°C / 90°F 18°C / 64°F
Humidity Altimeter Pressure
43% 30.07" Hg 1018 hPa